Time;durP1;ratioP1;P1;durP2;ratioP2;P2;SDS_P1;SDS_P2;PMS_P1;PMS_P2;Temp;Humidity;BMP_temperature;BMP_pressure;BME280_temperature;BME280_humidity;BME280_pressure;Samples;Min_cycle;Max_cycle;Signal;HPM_P1;HPM_P2
2024/02/04 00:00:30;;;;;;;38.17;22.60;;;204.80;2252.80;;;;;;4837411;29;20036;-73
2024/02/04 00:02:56;;;;;;;16.85;10.75;;;205.10;2252.80;;;;;;4838135;29;20106;-72
2024/02/04 00:05:22;;;;;;;18.15;12.35;;;205.20;2252.80;;;;;;4837544;29;20026;-73
2024/02/04 00:07:47;;;;;;;16.88;12.18;;;205.20;2252.80;;;;;;4837912;29;20029;-74
2024/02/04 00:10:15;;;;;;;14.90;9.30;;;205.20;2252.80;;;;;;4837765;29;20028;-74
2024/02/04 00:12:41;;;;;;;16.25;12.40;;;205.40;2252.80;;;;;;4837766;29;20038;-74
2024/02/04 00:15:08;;;;;;;18.92;12.60;;;205.60;2252.80;;;;;;4837840;29;20442;-73
2024/02/04 00:17:34;;;;;;;20.77;15.05;;;205.70;2252.80;;;;;;4838046;29;20037;-72
2024/02/04 00:20:01;;;;;;;25.80;18.73;;;205.60;2252.80;;;;;;4837845;29;20040;-73
2024/02/04 00:22:27;;;;;;;27.92;20.08;;;230.40;2252.80;;;;;;4837960;29;20038;-72
2024/02/04 00:24:53;;;;;;;18.63;10.93;;;205.70;2252.80;;;;;;4837680;29;20034;-73
2024/02/04 00:27:19;;;;;;;21.40;15.05;;;205.50;2252.80;;;;;;4837553;29;20542;-73
2024/02/04 00:29:44;;;;;;;17.30;11.90;;;205.40;2252.80;;;;;;4837924;29;20026;-72
2024/02/04 00:32:10;;;;;;;54.72;37.47;;;205.40;2252.80;;;;;;4837527;29;20022;-73
2024/02/04 00:34:36;;;;;;;41.92;23.63;;;205.40;2252.80;;;;;;4838270;29;20078;-72
2024/02/04 00:37:02;;;;;;;48.95;36.03;;;205.50;2252.80;;;;;;4841006;29;20060;-72
2024/02/04 00:39:28;;;;;;;34.53;21.13;;;205.60;2252.80;;;;;;4841193;29;20454;-72
2024/02/04 00:41:54;;;;;;;75.80;47.78;;;205.70;2252.80;;;;;;4840976;29;20045;-73
2024/02/04 00:44:19;;;;;;;49.42;31.60;;;230.40;2252.80;;;;;;4840596;29;20026;-73
2024/02/04 00:46:45;;;;;;;93.47;56.50;;;205.70;2252.80;;;;;;4840904;29;20044;-73
2024/02/04 00:49:11;;;;;;;36.45;21.58;;;230.40;2252.80;;;;;;4840699;29;20110;-72
2024/02/04 00:51:37;;;;;;;81.68;52.92;;;230.40;2252.80;;;;;;4840930;29;20034;-72
2024/02/04 00:54:02;;;;;;;62.97;37.05;;;205.70;2252.80;;;;;;4840667;29;20058;-72
2024/02/04 00:56:28;;;;;;;44.30;27.38;;;205.70;2252.80;;;;;;4840792;29;20025;-73
2024/02/04 00:58:54;;;;;;;98.70;63.45;;;205.60;2252.80;;;;;;4840742;29;20257;-71
2024/02/04 01:01:20;;;;;;;146.05;93.30;;;205.50;2252.80;;;;;;4839657;29;20124;-72
2024/02/04 01:03:46;;;;;;;78.85;53.38;;;205.70;2252.80;;;;;;4840752;29;20036;-73
2024/02/04 01:06:11;;;;;;;37.22;26.38;;;205.40;2252.80;;;;;;4840694;29;20026;-72
2024/02/04 01:08:37;;;;;;;20.60;12.20;;;205.50;2252.80;;;;;;4840608;29;20041;-72
2024/02/04 01:11:05;;;;;;;41.17;29.75;;;205.40;2252.80;;;;;;4840871;29;20098;-72
2024/02/04 01:13:31;;;;;;;32.00;21.05;;;205.50;2252.80;;;;;;4840730;29;20109;-72
2024/02/04 01:15:57;;;;;;;27.98;17.17;;;205.40;2252.80;;;;;;4840525;29;20202;-72
2024/02/04 01:18:23;;;;;;;49.58;30.42;;;205.20;2252.80;;;;;;4840387;29;20470;-72
2024/02/04 01:20:48;;;;;;;36.10;23.15;;;205.10;2252.80;;;;;;4840205;29;20026;-74
2024/02/04 01:23:17;;;;;;;25.65;17.27;;;205.10;2252.80;;;;;;4840344;29;20038;-72
2024/02/04 01:25:43;;;;;;;21.40;13.20;;;205.00;2252.80;;;;;;4840169;29;20034;-73
2024/02/04 01:28:09;;;;;;;19.63;11.70;;;204.90;2252.80;;;;;;4840065;29;20062;-72
2024/02/04 01:30:37;;;;;;;16.25;9.48;;;180.10;2252.80;;;;;;4840516;29;20117;-73
2024/02/04 01:33:03;;;;;;;23.48;12.30;;;180.10;2252.80;;;;;;4840091;29;20378;-72
2024/02/04 01:35:28;;;;;;;21.88;14.55;;;180.10;2252.80;;;;;;4839861;29;20033;-72
2024/02/04 01:37:54;;;;;;;24.80;15.77;;;180.10;2252.80;;;;;;4840145;29;20036;-72
2024/02/04 01:40:20;;;;;;;19.73;11.75;;;204.80;2252.80;;;;;;4840040;29;20033;-72
2024/02/04 01:42:46;;;;;;;90.47;52.83;;;180.10;2252.80;;;;;;4840104;29;20485;-72
2024/02/04 01:45:12;;;;;;;95.97;54.85;;;204.80;2252.80;;;;;;4839722;29;20110;-72
2024/02/04 01:47:37;;;;;;;114.28;65.78;;;204.90;2252.80;;;;;;4839980;29;20063;-72
2024/02/04 01:50:04;;;;;;;93.38;56.53;;;205.10;2252.80;;;;;;4839856;29;20021;-73
2024/02/04 01:52:32;;;;;;;110.63;66.30;;;205.30;2252.80;;;;;;4839471;29;20553;-72
2024/02/04 01:55:00;;;;;;;57.97;36.72;;;205.60;2252.80;;;;;;4839696;29;20066;-72
2024/02/04 01:57:26;;;;;;;38.00;26.02;;;230.40;2252.80;;;;;;4839941;29;20030;-72
2024/02/04 01:59:54;;;;;;;51.38;32.88;;;230.60;2252.80;;;;;;4839614;29;20083;-72
2024/02/04 02:02:20;;;;;;;22.63;14.02;;;230.60;2252.80;;;;;;4839464;29;20050;-72
2024/02/04 02:04:47;;;;;;;83.07;46.38;;;230.50;2252.80;;;;;;4839347;29;20033;-74
2024/02/04 02:07:16;;;;;;;160.55;88.90;;;230.40;2252.80;;;;;;4839514;29;20029;-74
2024/02/04 02:09:42;;;;;;;126.28;73.15;;;230.40;2252.80;;;;;;4835154;29;20025;-74
2024/02/04 02:12:12;;;;;;;49.80;28.73;;;230.40;2252.80;;;;;;4822843;29;20567;-70
2024/02/04 02:14:59;;;;;;;97.68;61.28;;;230.40;2252.80;;;;;;4824419;29;20022;-70
2024/02/04 02:17:33;;;;;;;55.22;35.65;;;230.50;2252.80;;;;;;4825683;29;20493;-69
2024/02/04 02:20:12;;;;;;;66.75;42.20;;;230.60;2252.80;;;;;;4826700;29;20450;-73
2024/02/04 02:22:51;;;;;;;53.10;32.30;;;230.60;2252.80;;;;;;4839324;29;20073;-74
2024/02/04 02:25:22;;;;;;;39.58;25.58;;;230.70;2252.80;;;;;;4836099;29;20035;-72
2024/02/04 02:27:51;;;;;;;32.90;21.08;;;230.70;2252.80;;;;;;4821796;29;20430;-74
2024/02/04 02:30:18;;;;;;;27.33;19.27;;;230.70;2252.80;;;;;;4838654;29;20026;-74
2024/02/04 02:32:48;;;;;;;18.27;11.80;;;230.80;2252.80;;;;;;4838757;29;20030;-74
2024/02/04 02:35:15;;;;;;;10.25;6.18;;;230.80;2252.80;;;;;;4837251;29;20445;-74
2024/02/04 02:37:44;;;;;;;15.40;11.80;;;230.80;2252.80;;;;;;4837975;29;20313;-74
2024/02/04 02:40:21;;;;;;;11.02;7.53;;;230.70;2252.80;;;;;;4836441;29;20105;-74
2024/02/04 02:42:51;;;;;;;11.13;6.95;;;230.70;2252.80;;;;;;4837817;29;20144;-73
2024/02/04 02:45:19;;;;;;;16.48;9.68;;;230.70;2252.80;;;;;;4835618;29;20026;-74
2024/02/04 02:47:47;;;;;;;11.38;8.75;;;230.60;2252.80;;;;;;4836715;29;20408;-75
2024/02/04 02:50:13;;;;;;;14.18;8.55;;;230.60;2252.80;;;;;;4834970;29;20030;-74
2024/02/04 02:52:39;;;;;;;12.27;7.80;;;230.60;2252.80;;;;;;4828298;29;20031;-73
2024/02/04 02:55:05;;;;;;;9.45;7.15;;;230.60;2252.80;;;;;;4832143;29;20098;-74
2024/02/04 02:57:31;;;;;;;9.65;4.68;;;230.60;2252.80;;;;;;4832386;29;20037;-74
2024/02/04 02:59:57;;;;;;;12.65;8.32;;;230.60;2252.80;;;;;;4838467;29;20049;-72
2024/02/04 03:02:23;;;;;;;10.75;7.60;;;230.60;2252.80;;;;;;4832801;29;20034;-74
2024/02/04 03:04:48;;;;;;;14.23;9.40;;;230.60;2252.80;;;;;;4831197;29;20065;-74
2024/02/04 03:07:14;;;;;;;10.90;6.38;;;230.60;2252.80;;;;;;4832585;29;20038;-74
2024/02/04 03:09:40;;;;;;;11.60;7.60;;;230.70;2252.80;;;;;;4831843;29;20074;-73
2024/02/04 03:12:06;;;;;;;17.58;8.27;;;230.70;2252.80;;;;;;4837505;29;20508;-73
2024/02/04 03:14:32;;;;;;;15.00;8.43;;;230.70;2252.80;;;;;;4837482;29;20500;-73
2024/02/04 03:16:57;;;;;;;12.90;7.85;;;230.70;2252.80;;;;;;4836842;29;20038;-73
2024/02/04 03:19:23;;;;;;;14.05;8.38;;;230.60;2252.80;;;;;;4837105;29;20022;-74
2024/02/04 03:21:49;;;;;;;13.43;8.95;;;230.60;2252.80;;;;;;4815192;29;20042;-75
2024/02/04 03:24:15;;;;;;;13.77;9.88;;;230.60;2252.80;;;;;;4832717;29;20044;-74
2024/02/04 03:26:40;;;;;;;13.48;9.07;;;230.50;2252.80;;;;;;4838066;29;20175;-74
2024/02/04 03:29:06;;;;;;;14.05;8.82;;;230.40;2252.80;;;;;;4838409;29;20082;-75
2024/02/04 03:31:32;;;;;;;15.00;8.80;;;230.40;2252.80;;;;;;4838067;29;20034;-74
2024/02/04 03:33:57;;;;;;;11.23;8.30;;;230.40;2252.80;;;;;;4837086;29;20299;-75
2024/02/04 03:36:24;;;;;;;10.38;6.97;;;230.50;2252.80;;;;;;4837793;29;20030;-75
2024/02/04 03:38:50;;;;;;;11.27;8.07;;;230.50;2252.80;;;;;;4822764;29;20018;-74
2024/02/04 03:41:17;;;;;;;12.07;7.47;;;230.50;2252.80;;;;;;4822313;29;20039;-73
2024/02/04 03:43:43;;;;;;;17.35;8.45;;;230.40;2252.80;;;;;;4823782;29;20030;-74
2024/02/04 03:46:12;;;;;;;16.92;10.07;;;230.40;2252.80;;;;;;4821645;29;20022;-75
2024/02/04 03:48:38;;;;;;;16.15;10.07;;;230.40;2252.80;;;;;;4834411;29;20026;-74
2024/02/04 03:51:03;;;;;;;10.98;7.28;;;230.40;2252.80;;;;;;4834289;29;20026;-74
2024/02/04 03:53:29;;;;;;;14.30;8.30;;;230.50;2252.80;;;;;;4837469;29;20148;-75
2024/02/04 03:55:55;;;;;;;14.45;9.10;;;230.50;2252.80;;;;;;4839941;29;20046;-74
2024/02/04 03:58:29;;;;;;;13.50;8.63;;;230.40;2252.80;;;;;;4837876;29;20060;-74
2024/02/04 04:00:55;;;;;;;20.30;10.98;;;230.40;2252.80;;;;;;4838074;29;20054;-74
2024/02/04 04:03:21;;;;;;;14.38;9.55;;;205.70;2252.80;;;;;;4837882;29;20026;-74
2024/02/04 04:05:47;;;;;;;17.65;10.48;;;205.70;2252.80;;;;;;4838025;29;20037;-74
2024/02/04 04:08:13;;;;;;;11.95;6.65;;;205.60;2252.80;;;;;;4837800;29;20378;-75
2024/02/04 04:10:39;;;;;;;8.07;5.25;;;205.60;2252.80;;;;;;4840119;29;20108;-75
2024/02/04 04:13:04;;;;;;;11.38;6.15;;;205.70;2252.80;;;;;;4841565;29;20451;-74
2024/02/04 04:15:30;;;;;;;11.63;7.75;;;205.70;2252.80;;;;;;4841489;29;20494;-74
2024/02/04 04:17:56;;;;;;;10.63;7.53;;;205.70;2252.80;;;;;;4845762;29;20053;-76
2024/02/04 04:20:21;;;;;;;13.45;8.73;;;205.70;2252.80;;;;;;4849093;29;20117;-74
2024/02/04 04:22:47;;;;;;;11.68;6.43;;;205.70;2252.80;;;;;;4841139;29;20046;-73
2024/02/04 04:25:14;;;;;;;8.40;5.85;;;205.60;2252.80;;;;;;4841840;29;20041;-74
2024/02/04 04:27:40;;;;;;;29.45;17.10;;;205.60;2252.80;;;;;;4841371;29;20040;-74
2024/02/04 04:30:08;;;;;;;23.30;13.48;;;205.50;2252.80;;;;;;4824733;29;20038;-74
2024/02/04 04:32:34;;;;;;;18.35;9.15;;;205.50;2252.80;;;;;;4841601;29;20022;-74
2024/02/04 04:35:00;;;;;;;10.38;6.57;;;205.50;2252.80;;;;;;4841037;29;20019;-75
2024/02/04 04:37:26;;;;;;;9.07;5.75;;;205.60;2252.80;;;;;;4841386;29;20054;-74
2024/02/04 04:39:52;;;;;;;7.13;4.30;;;205.70;2252.80;;;;;;4840785;29;20046;-75
2024/02/04 04:42:17;;;;;;;6.07;4.63;;;205.70;2252.80;;;;;;4841585;29;20462;-74
2024/02/04 04:44:43;;;;;;;8.95;4.53;;;205.60;2252.80;;;;;;4840842;29;20438;-74
2024/02/04 04:47:09;;;;;;;13.05;8.13;;;230.50;2252.80;;;;;;4840097;29;20048;-74
2024/02/04 04:49:34;;;;;;;17.25;10.77;;;205.60;2252.80;;;;;;4827385;29;20461;-73
2024/02/04 04:52:00;;;;;;;16.02;10.35;;;205.70;2252.80;;;;;;4841070;29;20083;-74
2024/02/04 04:54:28;;;;;;;29.80;25.77;;;205.60;2252.80;;;;;;4840588;29;20122;-73
2024/02/04 04:56:54;;;;;;;15.07;10.27;;;205.70;2252.80;;;;;;4841099;29;20034;-74
2024/02/04 04:59:19;;;;;;;13.45;8.38;;;205.70;2252.80;;;;;;4840449;29;20037;-74
2024/02/04 05:01:46;;;;;;;9.40;5.97;;;230.40;2252.80;;;;;;4840759;29;20042;-74
2024/02/04 05:04:12;;;;;;;43.45;19.42;;;205.70;2252.80;;;;;;4840411;29;20025;-74
2024/02/04 05:06:38;;;;;;;75.80;36.60;;;205.70;2252.80;;;;;;4840927;29;20038;-74
2024/02/04 05:09:03;;;;;;;56.95;26.33;;;230.40;2252.80;;;;;;4840297;29;20022;-74
2024/02/04 05:11:29;;;;;;;9.80;4.70;;;230.40;2252.80;;;;;;4840610;29;20139;-74
2024/02/04 05:13:55;;;;;;;6.20;4.03;;;230.50;2252.80;;;;;;4840507;29;20061;-73
2024/02/04 05:16:21;;;;;;;7.20;5.32;;;230.70;2252.80;;;;;;4840523;29;20105;-75
2024/02/04 05:18:46;;;;;;;90.88;50.10;;;230.60;2252.80;;;;;;4840144;29;20022;-74
2024/02/04 05:21:12;;;;;;;41.05;23.38;;;230.60;2252.80;;;;;;4840248;29;20030;-74
2024/02/04 05:23:38;;;;;;;15.23;10.43;;;230.60;2252.80;;;;;;4840423;29;20045;-74
2024/02/04 05:26:04;;;;;;;11.75;7.30;;;230.50;2252.80;;;;;;4840550;29;20049;-74
2024/02/04 05:28:30;;;;;;;185.63;82.70;;;230.80;2252.80;;;;;;4840249;29;20171;-74
2024/02/04 05:30:56;;;;;;;28.60;18.75;;;230.60;2252.80;;;;;;4840424;29;20106;-74
2024/02/04 05:33:22;;;;;;;78.30;44.30;;;230.50;2252.80;;;;;;4839963;29;20037;-74
2024/02/04 05:35:47;;;;;;;33.33;17.65;;;230.50;2252.80;;;;;;4840168;29;20033;-73
2024/02/04 05:38:13;;;;;;;28.60;14.35;;;230.50;2252.80;;;;;;4839970;29;20094;-73
2024/02/04 05:40:39;;;;;;;14.23;6.93;;;230.40;2252.80;;;;;;4839935;29;20064;-74
2024/02/04 05:43:07;;;;;;;8.45;6.05;;;205.60;2252.80;;;;;;4840059;29;20038;-73
2024/02/04 05:45:33;;;;;;;9.32;5.20;;;205.50;2252.80;;;;;;4839921;29;20022;-74
2024/02/04 05:47:59;;;;;;;11.10;6.07;;;205.40;2252.80;;;;;;4839833;29;20034;-74
2024/02/04 05:50:25;;;;;;;9.05;5.30;;;205.50;2252.80;;;;;;4840022;29;20026;-74
2024/02/04 05:52:50;;;;;;;8.82;4.63;;;205.50;2252.80;;;;;;4839326;29;20057;-74
2024/02/04 05:55:16;;;;;;;9.52;6.78;;;205.50;2252.80;;;;;;4839823;29;20022;-75
2024/02/04 05:57:42;;;;;;;6.32;4.60;;;205.50;2252.80;;;;;;4839645;29;20044;-74
2024/02/04 06:00:10;;;;;;;7.25;4.53;;;205.40;2252.80;;;;;;4839724;29;20026;-74
2024/02/04 06:02:36;;;;;;;8.93;6.78;;;205.30;2252.80;;;;;;4839792;29;20076;-74
2024/02/04 06:05:02;;;;;;;13.88;6.55;;;205.40;2252.80;;;;;;4839539;29;20050;-74
2024/02/04 06:07:28;;;;;;;20.48;11.70;;;205.30;2252.80;;;;;;4839518;29;20034;-76
2024/02/04 06:09:56;;;;;;;12.05;7.15;;;205.30;2252.80;;;;;;4839561;29;20103;-74
2024/02/04 06:12:22;;;;;;;8.98;7.97;;;205.30;2252.80;;;;;;4839192;29;20895;-75
2024/02/04 06:14:47;;;;;;;18.35;11.13;;;205.30;2252.80;;;;;;4839540;29;20389;-75
2024/02/04 06:17:13;;;;;;;37.47;24.80;;;205.40;2252.80;;;;;;4839148;29;20037;-74
2024/02/04 06:19:39;;;;;;;469.67;290.80;;;205.60;2252.80;;;;;;4823113;29;20044;-75
2024/02/04 06:22:05;;;;;;;60.17;35.60;;;205.70;2252.80;;;;;;4839156;29;20497;-75
2024/02/04 06:24:31;;;;;;;111.57;63.25;;;230.50;2252.80;;;;;;4839234;29;20493;-75
2024/02/04 06:26:56;;;;;;;47.72;27.25;;;230.60;2252.80;;;;;;4839105;29;20029;-76
2024/02/04 06:29:22;;;;;;;21.15;13.45;;;230.60;2252.80;;;;;;4827300;29;20038;-76
2024/02/04 06:31:48;;;;;;;14.13;8.30;;;230.60;2252.80;;;;;;4838885;29;20121;-75
2024/02/04 06:34:13;;;;;;;19.08;9.48;;;230.70;2252.80;;;;;;4838664;29;20037;-75
2024/02/04 06:36:44;;;;;;;163.68;127.13;;;230.80;2252.80;;;;;;4838820;29;20037;-75
2024/02/04 06:39:10;;;;;;;36.53;24.23;;;230.80;2252.80;;;;;;4838871;29;20032;-76
2024/02/04 06:41:35;;;;;;;52.40;34.35;;;230.70;2252.80;;;;;;4839081;29;20046;-75
2024/02/04 06:44:04;;;;;;;88.43;54.65;;;230.70;2252.80;;;;;;4838721;29;20094;-76
2024/02/04 06:46:30;;;;;;;53.22;35.08;;;230.60;2252.80;;;;;;4839009;29;20018;-75
2024/02/04 06:48:56;;;;;;;61.55;41.58;;;230.60;2252.80;;;;;;4838771;29;20058;-76
2024/02/04 06:51:22;;;;;;;41.33;27.20;;;230.70;2252.80;;;;;;4838846;29;20029;-75
2024/02/04 06:53:48;;;;;;;31.30;20.55;;;230.70;2252.80;;;;;;4838643;29;20061;-75
2024/02/04 06:56:14;;;;;;;28.90;19.52;;;230.60;2252.80;;;;;;4838892;29;20018;-75
2024/02/04 06:58:41;;;;;;;17.83;12.00;;;230.80;2252.80;;;;;;4838641;29;20041;-75
2024/02/04 07:01:07;;;;;;;15.52;9.75;;;230.70;2252.80;;;;;;4838628;29;20018;-75
2024/02/04 07:03:33;;;;;;;19.60;10.90;;;230.90;2252.80;;;;;;4838503;29;20443;-76
2024/02/04 07:05:59;;;;;;;16.73;9.63;;;231.10;2252.80;;;;;;4838697;29;20109;-75
2024/02/04 07:08:25;;;;;;;24.85;16.50;;;231.20;2252.80;;;;;;4838478;29;20030;-75
2024/02/04 07:10:51;;;;;;;18.33;13.68;;;231.30;2252.80;;;;;;4838429;29;20499;-75
2024/02/04 07:13:17;;;;;;;17.27;13.00;;;256.20;2252.80;;;;;;4838301;29;20034;-75
2024/02/04 07:15:43;;;;;;;28.88;20.02;;;256.50;2252.80;;;;;;4838554;29;20043;-75
2024/02/04 07:18:10;;;;;;;68.78;47.58;;;256.60;2252.80;;;;;;4838224;29;20125;-75
2024/02/04 07:20:35;;;;;;;44.67;32.92;;;256.60;2252.80;;;;;;4838300;29;20037;-74
2024/02/04 07:23:02;;;;;;;30.35;21.52;;;256.60;2252.80;;;;;;4838150;29;20042;-75
2024/02/04 07:25:27;;;;;;;20.85;15.30;;;256.60;2252.80;;;;;;4838598;29;20022;-74
2024/02/04 07:27:54;;;;;;;67.43;47.58;;;281.70;2278.40;;;;;;4838345;29;20508;-75
2024/02/04 07:30:20;;;;;;;64.20;45.85;;;282.00;2278.40;;;;;;4838297;29;20376;-75
2024/02/04 07:32:46;;;;;;;75.35;50.58;;;282.20;2278.40;;;;;;4838354;29;20033;-75
2024/02/04 07:35:12;;;;;;;109.15;81.72;;;282.20;2278.40;;;;;;4833589;29;20030;-75
2024/02/04 07:37:38;;;;;;;101.85;73.35;;;282.10;2278.40;;;;;;4838430;29;20088;-75
2024/02/04 07:40:08;;;;;;;57.78;41.95;;;282.00;2278.40;;;;;;4826282;29;20022;-75
2024/02/04 07:42:47;;;;;;;30.73;22.05;;;282.30;2278.40;;;;;;4838176;29;20046;-74
2024/02/04 07:45:13;;;;;;;12.85;8.55;;;307.20;2304.00;;;;;;4843311;29;20033;-75
2024/02/04 07:47:38;;;;;;;15.90;10.30;;;307.20;2304.00;;;;;;4843783;29;20030;-75
2024/02/04 07:50:05;;;;;;;20.83;14.18;;;282.50;2278.40;;;;;;4844218;29;20381;-75
2024/02/04 07:52:31;;;;;;;29.38;20.45;;;307.20;2304.00;;;;;;4842681;29;20082;-74
2024/02/04 07:54:56;;;;;;;27.70;17.58;;;307.40;2304.00;;;;;;4826700;29;20038;-74
2024/02/04 07:57:22;;;;;;;23.33;13.82;;;307.50;2304.00;;;;;;4839648;29;20029;-75
2024/02/04 07:59:48;;;;;;;17.60;13.52;;;307.70;2304.00;;;;;;4844239;29;20035;-75
2024/02/04 08:02:14;;;;;;;24.15;18.65;;;307.90;2304.00;;;;;;4843969;29;20385;-75
2024/02/04 08:04:42;;;;;;;22.58;15.27;;;307.90;2304.00;;;;;;4843951;29;20033;-75
2024/02/04 08:07:08;;;;;;;11.07;8.68;;;308.00;2304.00;;;;;;4845532;29;20030;-75
2024/02/04 08:09:34;;;;;;;8.75;5.00;;;308.00;2304.00;;;;;;4855095;29;20092;-75
2024/02/04 08:12:00;;;;;;;12.93;6.32;;;307.80;2304.00;;;;;;4843861;29;20029;-74
2024/02/04 08:14:26;;;;;;;11.25;8.73;;;307.80;2304.00;;;;;;4844115;29;20033;-75
2024/02/04 08:16:52;;;;;;;9.93;7.50;;;308.00;2304.00;;;;;;4843600;29;20190;-75
2024/02/04 08:19:18;;;;;;;30.30;23.02;;;307.80;2304.00;;;;;;4843795;29;20022;-74
2024/02/04 08:21:43;;;;;;;61.15;45.72;;;307.80;2304.00;;;;;;4844055;29;20042;-74
2024/02/04 08:24:09;;;;;;;66.88;47.72;;;307.80;2304.00;;;;;;4842554;29;20109;-76
2024/02/04 08:26:35;;;;;;;54.42;35.08;;;307.90;2304.00;;;;;;4838590;29;20038;-75
2024/02/04 08:29:01;;;;;;;130.45;77.68;;;308.00;2304.00;;;;;;4838949;29;20098;-74
2024/02/04 08:31:27;;;;;;;91.90;54.08;;;308.10;2304.00;;;;;;4844034;29;20026;-75
2024/02/04 08:33:52;;;;;;;37.13;26.25;;;332.90;2329.60;;;;;;4843689;29;20038;-74
2024/02/04 08:36:19;;;;;;;45.92;31.55;;;333.40;2329.60;;;;;;4842018;29;20025;-74
2024/02/04 08:38:45;;;;;;;51.95;36.67;;;333.70;2329.60;;;;;;4835515;29;20473;-74
2024/02/04 08:41:10;;;;;;;70.68;50.50;;;358.50;2329.60;;;;;;4839508;29;20102;-74
2024/02/04 08:43:36;;;;;;;70.97;51.85;;;358.80;2329.60;;;;;;4834297;29;20382;-74
2024/02/04 08:46:02;;;;;;;38.63;28.65;;;359.20;2329.60;;;;;;4833603;29;20075;-74
2024/02/04 08:48:28;;;;;;;28.63;21.92;;;384.00;2329.60;;;;;;4843980;29;20477;-74
2024/02/04 08:50:54;;;;;;;260.70;199.38;;;384.20;2329.60;;;;;;4827438;29;20034;-73
2024/02/04 08:53:21;;;;;;;291.38;225.98;;;359.10;2329.60;;;;;;4826756;29;20055;-74
2024/02/04 08:55:47;;;;;;;288.95;218.07;;;358.80;2329.60;;;;;;4841127;29;20514;-75
2024/02/04 08:58:13;;;;;;;262.42;201.60;;;359.00;2329.60;;;;;;4840039;29;20038;-75
2024/02/04 09:00:38;;;;;;;229.77;181.13;;;384.00;2329.60;;;;;;4839778;29;20026;-74
2024/02/04 09:03:04;;;;;;;223.50;175.85;;;384.40;2329.60;;;;;;4839308;29;20042;-74
2024/02/04 09:05:30;;;;;;;153.98;120.45;;;384.60;2304.00;;;;;;4825248;29;20053;-74
2024/02/04 09:07:56;;;;;;;130.45;96.35;;;384.20;2329.60;;;;;;4823776;29;20033;-75
2024/02/04 09:10:22;;;;;;;106.45;82.70;;;384.20;2329.60;;;;;;4840327;29;20026;-74
2024/02/04 09:12:48;;;;;;;246.57;189.60;;;384.60;2329.60;;;;;;4840739;29;20397;-75
2024/02/04 09:15:13;;;;;;;213.77;175.82;;;435.30;2176.00;;;;;;4840424;29;20018;-75
2024/02/04 09:17:39;;;;;;;168.90;143.68;;;461.30;2099.20;;;;;;4840541;29;20030;-75
2024/02/04 09:20:07;;;;;;;279.00;232.60;;;461.70;2048.00;;;;;;4840382;29;20033;-74
2024/02/04 09:22:33;;;;;;;193.60;155.57;;;436.10;2048.00;;;;;;4840141;29;20042;-75
2024/02/04 09:24:59;;;;;;;195.65;166.32;;;435.50;2099.20;;;;;;4840210;29;20037;-75
2024/02/04 09:27:25;;;;;;;240.63;195.07;;;409.90;2176.00;;;;;;4840483;29;20438;-75
2024/02/04 09:29:51;;;;;;;210.63;173.98;;;384.90;2201.60;;;;;;4840282;29;20022;-75
2024/02/04 09:32:17;;;;;;;190.55;157.55;;;384.30;2252.80;;;;;;4840294;29;20028;-75
2024/02/04 09:34:43;;;;;;;152.98;125.63;;;359.30;2278.40;;;;;;4839987;29;20037;-75
2024/02/04 09:37:09;;;;;;;161.35;132.27;;;359.20;2304.00;;;;;;4840017;29;20029;-75
2024/02/04 09:39:35;;;;;;;145.35;112.10;;;359.10;2329.60;;;;;;4840366;29;20041;-75
2024/02/04 09:42:02;;;;;;;149.27;118.65;;;359.00;2329.60;;;;;;4839717;29;20026;-75
2024/02/04 09:44:28;;;;;;;142.75;107.68;;;359.20;2329.60;;;;;;4840319;29;20022;-74
2024/02/04 09:46:54;;;;;;;129.75;101.35;;;384.00;2304.00;;;;;;4839832;29;20065;-75
2024/02/04 09:49:20;;;;;;;148.50;109.03;;;384.20;2304.00;;;;;;4839638;29;20018;-74
2024/02/04 09:51:47;;;;;;;96.65;73.28;;;384.20;2252.80;;;;;;4839364;29;20457;-73
2024/02/04 09:54:16;;;;;;;53.97;38.65;;;384.10;2252.80;;;;;;4839012;29;20057;-73
2024/02/04 09:56:42;;;;;;;51.17;32.92;;;384.20;2201.60;;;;;;4838693;29;20060;-74
2024/02/04 09:59:08;;;;;;;64.75;49.78;;;384.40;2176.00;;;;;;4842228;29;20533;-75
2024/02/04 10:01:35;;;;;;;83.38;57.45;;;384.40;2201.60;;;;;;4840022;29;20030;-80
2024/02/04 10:04:01;;;;;;;124.45;100.30;;;384.10;2201.60;;;;;;4839403;29;20082;-79
2024/02/04 10:06:27;;;;;;;110.80;81.50;;;384.10;2252.80;;;;;;4848682;29;20030;-81
2024/02/04 10:08:53;;;;;;;67.80;48.20;;;384.10;2252.80;;;;;;4838870;29;20531;-85
2024/02/04 10:11:19;;;;;;;93.38;70.15;;;384.00;2227.20;;;;;;4822315;29;20386;-84
2024/02/04 10:13:46;;;;;;;103.57;79.97;;;384.10;2252.80;;;;;;4837962;29;20045;-86
2024/02/04 10:16:16;;;;;;;83.30;63.17;;;384.40;2252.80;;;;;;4822936;29;20398;-84
2024/02/04 10:18:43;;;;;;;58.00;42.42;;;384.60;2227.20;;;;;;4823083;29;20034;-84
2024/02/04 10:21:23;;;;;;;60.92;43.25;;;384.70;2201.60;;;;;;4823145;29;20080;-84
2024/02/04 10:23:50;;;;;;;37.45;30.25;;;384.90;2176.00;;;;;;4822740;29;20038;-85
2024/02/04 10:26:17;;;;;;;38.65;30.17;;;409.90;2150.40;;;;;;4823429;29;20038;-84
2024/02/04 10:28:46;;;;;;;23.67;18.98;;;410.00;2150.40;;;;;;4823040;29;20477;-83
2024/02/04 10:31:12;;;;;;;30.13;23.27;;;410.50;2048.00;;;;;;4833444;29;20534;-81
2024/02/04 10:33:38;;;;;;;21.63;14.93;;;435.20;2048.00;;;;;;4823052;29;20036;-81
2024/02/04 10:36:05;;;;;;;16.88;13.93;;;435.20;2048.00;;;;;;4825996;29;20021;-72
2024/02/04 10:38:34;;;;;;;24.17;18.35;;;410.30;2048.00;;;;;;4847422;29;20026;-74
2024/02/04 10:41:01;;;;;;;37.60;29.65;;;410.30;2048.00;;;;;;4838472;29;20125;-78
2024/02/04 10:43:34;;;;;;;33.28;24.77;;;435.50;2048.00;;;;;;4838717;29;20117;-72
2024/02/04 10:46:19;;;;;;;13.90;10.02;;;435.50;2022.40;;;;;;4838734;29;20404;-72
2024/02/04 10:48:54;;;;;;;24.88;19.20;;;435.30;2048.00;;;;;;4835609;29;20529;-71
2024/02/04 10:51:26;;;;;;;27.83;20.10;;;435.20;2048.00;;;;;;4836623;29;20462;-72
2024/02/04 10:53:58;;;;;;;19.67;15.18;;;410.20;2048.00;;;;;;4834494;29;20428;-71
2024/02/04 10:56:32;;;;;;;30.00;20.15;;;435.20;2022.40;;;;;;4836694;29;20105;-72
2024/02/04 10:59:00;;;;;;;32.63;20.88;;;435.20;2022.40;;;;;;4835355;29;20038;-71
2024/02/04 11:01:26;;;;;;;14.10;11.20;;;410.30;2048.00;;;;;;4834451;29;20034;-71
2024/02/04 11:03:53;;;;;;;10.85;5.97;;;410.30;2048.00;;;;;;4829501;29;20038;-72
2024/02/04 11:06:21;;;;;;;22.65;14.68;;;410.30;2048.00;;;;;;4820746;29;20026;-72
2024/02/04 11:08:47;;;;;;;18.05;9.80;;;435.30;2022.40;;;;;;4827752;29;20129;-71
2024/02/04 11:11:13;;;;;;;25.20;18.17;;;435.40;2022.40;;;;;;4838659;29;20032;-71
2024/02/04 11:13:42;;;;;;;22.85;14.55;;;435.60;1996.80;;;;;;4837357;29;20050;-72
2024/02/04 11:16:25;;;;;;;14.90;9.50;;;435.80;1971.20;;;;;;4838295;29;20395;-72
2024/02/04 11:19:09;;;;;;;19.45;12.38;;;435.40;1996.80;;;;;;4811364;29;20141;-76
2024/02/04 11:21:58;;;;;;;13.45;8.48;;;436.00;1971.20;;;;;;4836911;29;20048;-71
2024/02/04 11:24:42;;;;;;;19.38;12.80;;;435.30;1971.20;;;;;;4836771;29;20202;-82
2024/02/04 11:27:08;;;;;;;18.60;12.32;;;435.60;1971.20;;;;;;4837056;29;20029;-71
2024/02/04 11:29:35;;;;;;;27.95;15.63;;;435.30;1996.80;;;;;;4838049;29;20054;-78
2024/02/04 11:32:02;;;;;;;13.95;10.55;;;435.50;1971.20;;;;;;4837836;29;20026;-71
2024/02/04 11:34:28;;;;;;;26.80;18.23;;;435.30;1996.80;;;;;;4837842;29;20022;-72
2024/02/04 11:36:54;;;;;;;16.67;9.23;;;435.30;2022.40;;;;;;4838032;29;20030;-71
2024/02/04 11:39:25;;;;;;;14.90;10.02;;;435.20;1996.80;;;;;;4837352;29;20090;-73
2024/02/04 11:41:51;;;;;;;23.17;14.38;;;410.50;1996.80;;;;;;4837737;29;20121;-72
2024/02/04 11:44:24;;;;;;;12.25;8.10;;;410.50;2022.40;;;;;;4837821;29;20389;-72
2024/02/04 11:46:50;;;;;;;15.23;10.43;;;410.50;1996.80;;;;;;4837895;29;20457;-72
2024/02/04 11:49:19;;;;;;;11.00;5.88;;;435.20;1996.80;;;;;;4837701;29;20026;-71
2024/02/04 11:51:50;;;;;;;34.55;22.35;;;435.40;1971.20;;;;;;4837875;29;20026;-71
2024/02/04 11:54:18;;;;;;;16.13;11.30;;;435.50;1971.20;;;;;;4837840;29;20536;-72
2024/02/04 11:56:45;;;;;;;11.45;7.90;;;435.30;1996.80;;;;;;4837851;29;20025;-83
2024/02/04 11:59:13;;;;;;;6.63;5.55;;;435.20;1996.80;;;;;;4837498;29;20446;-71